Stations météo

Publicité
Lus-La-Croix-Haute, France (7587): Température de l'air & dewpoint: 12.08.2017 03:00:00 - 18.08.2017 03:00:00 (CEST)Lus-La-Croix-Haute, France (7587): Vitesse du vent & gusts: 12.08.2017 03:00:00 - 18.08.2017 03:00:00 (CEST)Lus-La-Croix-Haute, France (7587): Direction du vent: 12.08.2017 03:00:00 - 18.08.2017 03:00:00 (CEST)Lus-La-Croix-Haute, France (7587): Quantités de précipitations: 12.08.2017 03:00:00 - 18.08.2017 03:00:00 (CEST)
Date & Time tt [°C] td [°C] ff [km/h] ff [knt] fx [km/h] fx [knt] dd rr [mm]
18.08.2017 03:00:00 - - - - - - - -
18.08.2017 02:00:00 14,2 12,9 4 2 8 4 ESE -
18.08.2017 01:00:00 15,3 13,8 4 2 9 5 SE 0,0
18.08.2017 00:00:00 16,7 14,5 2 1 8 4 SW 0,0
17.08.2017 23:00:00 17,6 14,9 4 2 13 7 E 0,0
17.08.2017 22:00:00 18,8 15,1 8 4 16 9 NNW 0,0
17.08.2017 21:00:00 20,5 15,5 11 6 34 18 NW 0,0
17.08.2017 20:00:00 21,9 16,0 24 13 37 20 WNW -
17.08.2017 19:00:00 25,6 15,9 16 9 34 18 NW 0,0
17.08.2017 18:00:00 27,7 16,0 16 9 29 16 NW 0,0
17.08.2017 17:00:00 28,0 13,9 9 5 24 13 WNW 0,0
17.08.2017 16:00:00 27,9 9,7 4 2 24 13 ESE 0,0
17.08.2017 15:00:00 28,7 9,9 9 5 28 15 SSE 0,0
17.08.2017 14:00:00 27,8 9,6 9 5 28 15 SSE -
17.08.2017 13:00:00 27,3 10,1 8 4 18 10 SE 0,0
17.08.2017 12:00:00 25,7 11,1 9 5 18 10 S 0,0
17.08.2017 11:00:00 22,2 13,3 4 2 8 4 S 0,0
17.08.2017 10:00:00 16,8 14,3 2 1 8 4 SSW 0,0
17.08.2017 09:00:00 12,3 12,0 2 1 4 2 NNE 0,0
17.08.2017 08:00:00 10,1 9,8 2 1 4 2 N -
17.08.2017 07:00:00 9,4 9,1 2 1 8 4 E 0,0
17.08.2017 06:00:00 9,7 9,4 4 2 5 3 N 0,0
17.08.2017 05:00:00 9,8 9,5 2 1 4 2 SSE 0,2
17.08.2017 04:00:00 10,2 9,7 2 1 4 2 NW 0,0
17.08.2017 03:00:00 10,7 10,2 4 2 4 2 N 0,0
17.08.2017 02:00:00 11,0 10,5 2 1 8 4 N -
17.08.2017 01:00:00 11,6 10,8 4 2 8 4 ESE 0,0
17.08.2017 00:00:00 12,3 11,4 2 1 5 3 NNE 0,0
16.08.2017 23:00:00 13,2 12,3 4 2 5 3 ESE 0,0
16.08.2017 22:00:00 14,4 12,9 4 2 8 4 SSE 0,0
16.08.2017 21:00:00 16,2 14,2 2 1 5 3 WNW 0,0
16.08.2017 20:00:00 17,9 15,0 4 2 8 4 W -
16.08.2017 19:00:00 20,2 15,2 4 2 8 4 WSW 0,0
16.08.2017 18:00:00 18,1 15,7 4 2 18 10 NNW 0,4
16.08.2017 17:00:00 18,4 14,9 8 4 24 13 S 0,4
16.08.2017 16:00:00 20,7 13,6 8 4 44 24 ESE 0,2
16.08.2017 15:00:00 25,5 11,6 13 7 26 14 WNW 0,0
16.08.2017 14:00:00 27,4 7,8 8 4 16 9 NW -
16.08.2017 13:00:00 27,2 8,1 5 3 15 8 SSE 0,0
16.08.2017 12:00:00 25,1 11,3 4 2 11 6 W 0,0
16.08.2017 11:00:00 23,0 10,4 5 3 11 6 SSE 0,0
16.08.2017 10:00:00 19,8 11,6 4 2 9 5 SSE 0,0
16.08.2017 09:00:00 15,7 11,1 2 1 8 4 S 0,0
16.08.2017 08:00:00 12,0 9,4 4 2 9 5 N -
16.08.2017 07:00:00 11,7 9,3 4 2 8 4 SSE 0,0
16.08.2017 06:00:00 12,5 9,9 4 2 8 4 SE 0,0
16.08.2017 05:00:00 13,9 10,9 2 1 13 7 E 0,0
16.08.2017 04:00:00 15,5 11,1 5 3 24 13 ESE 0,0
16.08.2017 03:00:00 17,6 11,6 11 6 37 20 E 0,0
16.08.2017 02:00:00 18,2 11,5 9 5 35 19 N -
16.08.2017 01:00:00 16,8 11,5 4 2 13 7 NNW 0,0
16.08.2017 00:00:00 17,4 11,4 2 1 15 8 S 0,0
15.08.2017 23:00:00 18,0 11,6 5 3 21 11 ENE 0,0
15.08.2017 22:00:00 18,9 10,7 8 4 18 10 N 0,0
15.08.2017 21:00:00 20,4 10,5 8 4 18 10 N 0,0
15.08.2017 20:00:00 22,4 10,2 5 3 22 12 WSW -
15.08.2017 19:00:00 24,4 10,7 5 3 21 11 SW 0,0
15.08.2017 18:00:00 25,9 7,0 8 4 29 16 S 0,0
15.08.2017 17:00:00 25,8 5,9 15 8 34 18 S 0,0
15.08.2017 16:00:00 27,5 7,4 16 9 34 18 S 0,0
15.08.2017 15:00:00 28,0 7,3 16 9 35 19 SSW 0,0
15.08.2017 14:00:00 27,5 8,9 11 6 34 18 S -
15.08.2017 13:00:00 25,9 8,4 16 9 34 18 S 0,0
15.08.2017 12:00:00 24,4 8,4 15 8 29 16 SSW 0,0
15.08.2017 11:00:00 23,1 9,5 13 7 29 16 SSW 0,0
15.08.2017 10:00:00 17,3 11,6 4 2 8 4 SSE 0,0
15.08.2017 09:00:00 12,1 10,5 2 1 4 2 NW 0,0
15.08.2017 08:00:00 8,7 8,2 2 1 8 4 ENE -
15.08.2017 07:00:00 8,5 7,9 4 2 5 3 SE 0,0
15.08.2017 06:00:00 8,9 8,0 2 1 8 4 NNE 0,0
15.08.2017 05:00:00 9,4 8,3 4 2 5 3 E 0,0
15.08.2017 04:00:00 10,4 9,2 2 1 5 3 N 0,0
15.08.2017 03:00:00 11,1 9,5 2 1 4 2 ESE 0,0
15.08.2017 02:00:00 11,8 9,9 2 1 4 2 W -
15.08.2017 01:00:00 12,6 10,1 2 1 5 3 SSE 0,0
15.08.2017 00:00:00 13,9 10,5 2 1 5 3 E 0,0
14.08.2017 23:00:00 15,3 10,1 4 2 5 3 E 0,0
14.08.2017 22:00:00 17,3 10,4 2 1 5 3 ESE 0,0
14.08.2017 21:00:00 19,6 10,3 2 1 16 9 WNW 0,0
14.08.2017 20:00:00 22,7 10,2 5 3 24 13 SW -
14.08.2017 19:00:00 25,9 8,8 11 6 28 15 SSE 0,0
14.08.2017 18:00:00 24,9 8,0 8 4 26 14 S 0,0
14.08.2017 17:00:00 26,7 10,0 13 7 26 14 S 0,0
14.08.2017 16:00:00 25,7 9,5 11 6 34 18 S 0,0
14.08.2017 15:00:00 26,4 9,3 18 10 34 18 S 0,0
14.08.2017 14:00:00 25,7 8,7 11 6 34 18 SSW -
14.08.2017 13:00:00 24,4 9,9 18 10 37 20 S 0,0
14.08.2017 12:00:00 23,3 10,7 16 9 28 15 S 0,0
14.08.2017 11:00:00 21,6 11,3 13 7 28 15 SSW 0,0
14.08.2017 10:00:00 16,5 13,2 4 2 9 5 WSW 0,0
14.08.2017 09:00:00 12,5 12,2 2 1 5 3 WNW 0,0
14.08.2017 08:00:00 9,8 9,5 2 1 4 2 NNW -
14.08.2017 07:00:00 9,3 8,8 2 1 2 1 NNW 0,0
14.08.2017 06:00:00 9,5 8,9 2 1 2 1 SSE 0,0
14.08.2017 05:00:00 10,0 9,5 2 1 4 2 N 0,0
14.08.2017 04:00:00 10,2 9,6 2 1 4 2 N 0,0
14.08.2017 03:00:00 10,9 10,3 2 1 4 2 N 0,0
14.08.2017 02:00:00 11,3 10,4 2 1 4 2 E -
14.08.2017 01:00:00 11,9 10,5 2 1 5 3 WNW 0,0
14.08.2017 00:00:00 12,6 10,8 2 1 8 4 ESE 0,0
13.08.2017 23:00:00 13,6 10,8 4 2 8 4 NE 0,0
13.08.2017 22:00:00 14,3 10,9 4 2 16 9 NNE 0,0
13.08.2017 21:00:00 16,0 11,2 8 4 29 16 NNW 0,0
13.08.2017 20:00:00 17,7 10,8 15 8 37 20 NW -
13.08.2017 19:00:00 20,1 12,1 21 11 41 22 NW 0,0
13.08.2017 18:00:00 21,3 11,6 28 15 50 27 NW 0,0
13.08.2017 17:00:00 21,8 11,5 21 11 37 20 NW 0,0
13.08.2017 16:00:00 23,0 11,4 18 10 31 17 WNW 0,0
13.08.2017 15:00:00 21,9 10,7 13 7 34 18 WNW 0,0
13.08.2017 14:00:00 21,0 10,8 16 9 34 18 NW -
13.08.2017 13:00:00 18,0 9,4 18 10 34 18 NW 0,0
13.08.2017 12:00:00 17,2 10,3 13 7 34 18 WNW 0,0
13.08.2017 11:00:00 15,3 9,0 15 8 37 20 NW 0,0
13.08.2017 10:00:00 14,6 9,4 13 7 29 16 NW 0,0
13.08.2017 09:00:00 13,1 8,8 15 8 28 15 NW 0,0
13.08.2017 08:00:00 12,9 8,8 8 4 24 13 NW -
13.08.2017 07:00:00 12,1 8,6 8 4 22 12 NNW 0,0
13.08.2017 06:00:00 11,6 8,3 4 2 11 6 N 0,0
13.08.2017 05:00:00 11,3 8,0 4 2 11 6 E 0,0
13.08.2017 04:00:00 12,0 8,1 4 2 22 12 ENE 0,0
13.08.2017 03:00:00 12,0 8,5 8 4 28 15 NNE 0,0
13.08.2017 02:00:00 12,1 8,2 4 2 26 14 NE -
13.08.2017 01:00:00 12,1 8,4 13 7 24 13 NW 0,0
13.08.2017 00:00:00 12,4 8,5 9 5 26 14 NNW 0,0
12.08.2017 23:00:00 12,8 9,1 9 5 21 11 NW 0,0
12.08.2017 22:00:00 13,1 8,8 9 5 22 12 N 0,0
12.08.2017 21:00:00 14,2 8,8 9 5 34 18 NNW 0,0
12.08.2017 20:00:00 16,3 8,8 16 9 39 21 NNW -
12.08.2017 19:00:00 18,2 8,5 21 11 42 23 WNW 0,0
12.08.2017 18:00:00 18,9 7,9 21 11 48 26 NW 0,0
12.08.2017 17:00:00 19,6 8,9 21 11 50 27 NW 0,0
12.08.2017 16:00:00 18,6 7,7 24 13 54 29 NW 0,0
12.08.2017 15:00:00 18,5 7,6 15 8 46 25 NNW 0,0
12.08.2017 14:00:00 17,2 7,3 11 6 34 18 NE -
12.08.2017 13:00:00 16,5 7,4 15 8 41 22 NNW 0,0
12.08.2017 12:00:00 15,1 7,9 13 7 35 19 NNW 0,0
12.08.2017 11:00:00 13,2 6,5 15 8 48 26 NNW 0,0
12.08.2017 10:00:00 10,8 5,5 11 6 41 22 N 0,0
12.08.2017 09:00:00 9,7 5,1 15 8 35 19 N 0,0
12.08.2017 08:00:00 9,6 5,4 15 8 39 21 NNW -
12.08.2017 07:00:00 8,9 5,1 15 8 35 19 NW 0,0
12.08.2017 06:00:00 9,3 4,7 8 4 42 23 N 0,0
12.08.2017 05:00:00 9,4 5,2 13 7 52 28 NNW 0,0
12.08.2017 04:00:00 9,8 5,0 13 7 46 25 N 0,0
12.08.2017 03:00:00 9,6 5,2 13 7 41 22 N 0,0

tt = Température de l'air
td = dewpoint
ff = Vitesse du vent
fx = gusts
dd = Direction du vent
rr = Quantités de précipitations

stations d'obs. à proximité